Time;durP1;ratioP1;P1;durP2;ratioP2;P2;SDS_P1;SDS_P2;PMS_P1;PMS_P2;Temp;Humidity;BMP_temperature;BMP_pressure;BME280_temperature;BME280_humidity;BME280_pressure;Samples;Min_cycle;Max_cycle;Signal;HPM_P1;HPM_P2
2022/03/11 00:02:22;;;;;;;15.25;9.30;;;;;;;;;;5096829;28;20563;-67
2022/03/11 00:04:49;;;;;;;15.25;9.63;;;;;;;;;;5096364;28;20294;-67
2022/03/11 00:07:17;;;;;;;11.52;9.70;;;;;;;;;;5096801;28;20204;-66
2022/03/11 00:09:45;;;;;;;14.73;9.18;;;;;;;;;;5096305;28;20257;-66
2022/03/11 00:12:12;;;;;;;15.82;8.98;;;;;;;;;;5096814;28;20254;-66
2022/03/11 00:14:39;;;;;;;12.00;9.30;;;;;;;;;;5096184;28;20740;-67
2022/03/11 00:17:07;;;;;;;16.20;10.77;;;;;;;;;;5096558;28;20228;-66
2022/03/11 00:19:34;;;;;;;12.27;9.82;;;;;;;;;;5096731;28;20203;-68
2022/03/11 00:22:02;;;;;;;15.07;10.32;;;;;;;;;;5096877;28;20249;-67
2022/03/11 00:24:31;;;;;;;12.02;9.00;;;;;;;;;;5096353;28;20223;-67
2022/03/11 00:26:58;;;;;;;10.90;9.32;;;;;;;;;;5096365;28;20202;-67
2022/03/11 00:29:25;;;;;;;15.20;10.27;;;;;;;;;;5095289;28;20221;-67
2022/03/11 00:31:52;;;;;;;18.80;10.32;;;;;;;;;;5095901;28;20209;-67
2022/03/11 00:34:20;;;;;;;14.20;10.25;;;;;;;;;;5096143;28;20286;-67
2022/03/11 00:36:47;;;;;;;12.43;9.95;;;;;;;;;;5095936;28;20296;-67
2022/03/11 00:39:14;;;;;;;12.48;9.43;;;;;;;;;;5096011;28;20289;-67
2022/03/11 00:41:43;;;;;;;14.45;10.18;;;;;;;;;;5096027;28;20638;-67
2022/03/11 00:44:10;;;;;;;16.05;10.75;;;;;;;;;;5095721;28;20203;-67
2022/03/11 00:46:37;;;;;;;14.05;10.57;;;;;;;;;;5095584;28;20222;-67
2022/03/11 00:49:05;;;;;;;15.52;10.70;;;;;;;;;;5096137;28;20650;-67
2022/03/11 00:51:32;;;;;;;16.48;11.35;;;;;;;;;;5095908;28;20198;-67
2022/03/11 00:53:59;;;;;;;16.80;11.90;;;;;;;;;;5095566;28;20194;-67
2022/03/11 00:56:27;;;;;;;16.15;10.90;;;;;;;;;;5095687;28;20199;-67
2022/03/11 01:01:31;;;;;;;17.63;10.98;;;;;;;;;;5231740;22;20239;-64
2022/03/11 01:03:58;;;;;;;16.55;10.20;;;;;;;;;;5015437;28;20563;-65
2022/03/11 01:06:26;;;;;;;15.43;10.75;;;;;;;;;;5015456;28;20197;-65
2022/03/11 01:08:53;;;;;;;17.30;11.05;;;;;;;;;;5015384;28;20570;-66
2022/03/11 01:11:20;;;;;;;18.60;12.93;;;;;;;;;;5015510;28;20216;-65
2022/03/11 01:13:47;;;;;;;15.82;10.95;;;;;;;;;;5015649;28;20197;-66
2022/03/11 01:16:14;;;;;;;15.68;10.90;;;;;;;;;;5015285;28;20197;-66
2022/03/11 01:18:43;;;;;;;15.40;11.05;;;;;;;;;;5015006;28;20650;-65
2022/03/11 01:21:11;;;;;;;23.02;12.00;;;;;;;;;;5015530;28;20203;-65
2022/03/11 01:23:38;;;;;;;18.70;11.85;;;;;;;;;;5014994;28;20727;-66
2022/03/11 01:26:05;;;;;;;16.17;10.95;;;;;;;;;;5015120;28;20580;-65
2022/03/11 01:28:32;;;;;;;20.52;10.75;;;;;;;;;;5015363;28;20295;-65
2022/03/11 01:31:00;;;;;;;16.20;11.95;;;;;;;;;;5015469;28;20194;-65
2022/03/11 01:33:27;;;;;;;12.75;11.40;;;;;;;;;;5015089;28;20292;-65
2022/03/11 01:35:55;;;;;;;15.68;11.25;;;;;;;;;;5014339;28;20625;-66
2022/03/11 01:38:22;;;;;;;18.55;12.55;;;;;;;;;;5015007;28;20205;-65
2022/03/11 01:40:50;;;;;;;18.45;12.95;;;;;;;;;;5015163;28;20198;-64
2022/03/11 01:43:18;;;;;;;16.05;11.75;;;;;;;;;;5014939;28;20201;-65
2022/03/11 01:45:45;;;;;;;18.33;13.13;;;;;;;;;;5014756;28;20197;-65
2022/03/11 01:48:13;;;;;;;16.60;12.07;;;;;;;;;;5014836;28;20212;-65
2022/03/11 01:50:41;;;;;;;18.33;12.00;;;;;;;;;;5014616;28;20323;-65
2022/03/11 01:53:10;;;;;;;17.52;12.30;;;;;;;;;;5014403;28;20650;-65
2022/03/11 01:55:37;;;;;;;17.13;13.48;;;;;;;;;;5014892;28;20229;-65
2022/03/11 01:58:05;;;;;;;24.95;13.45;;;;;;;;;;5014282;28;20200;-65
2022/03/11 02:00:34;;;;;;;19.67;13.90;;;;;;;;;;5014497;28;20224;-64
2022/03/11 02:03:02;;;;;;;19.17;13.23;;;;;;;;;;5014458;28;20197;-65
2022/03/11 02:05:29;;;;;;;19.70;12.43;;;;;;;;;;5014450;28;20220;-65
2022/03/11 02:07:58;;;;;;;17.20;12.98;;;;;;;;;;5015001;28;20202;-65
2022/03/11 02:10:29;;;;;;;17.02;12.65;;;;;;;;;;5014315;28;20228;-65
2022/03/11 02:12:57;;;;;;;20.38;13.77;;;;;;;;;;5014364;28;20195;-65
2022/03/11 02:15:24;;;;;;;22.52;12.23;;;;;;;;;;5014591;28;20194;-66
2022/03/11 02:17:52;;;;;;;24.83;14.70;;;;;;;;;;5013881;28;20204;-65
2022/03/11 02:20:19;;;;;;;20.38;14.00;;;;;;;;;;5013958;28;20687;-65
2022/03/11 02:22:49;;;;;;;16.55;12.90;;;;;;;;;;5014150;28;20561;-65
2022/03/11 02:25:17;;;;;;;23.98;13.57;;;;;;;;;;5014123;28;20204;-65
2022/03/11 02:27:46;;;;;;;19.73;12.38;;;;;;;;;;5014139;28;20219;-64
2022/03/11 02:30:14;;;;;;;16.65;12.60;;;;;;;;;;5014051;28;20233;-65
2022/03/11 02:32:41;;;;;;;17.30;12.10;;;;;;;;;;5013943;28;20197;-65
2022/03/11 02:35:09;;;;;;;19.45;13.20;;;;;;;;;;5013747;28;20193;-64
2022/03/11 02:37:37;;;;;;;20.98;13.32;;;;;;;;;;5013942;28;20196;-64
2022/03/11 02:40:05;;;;;;;15.45;12.38;;;;;;;;;;5013935;28;20197;-65
2022/03/11 02:42:33;;;;;;;18.38;12.90;;;;;;;;;;5013984;28;20204;-65
2022/03/11 02:45:00;;;;;;;18.67;12.88;;;;;;;;;;5013842;28;20224;-65
2022/03/11 02:47:28;;;;;;;16.73;12.98;;;;;;;;;;5013809;28;20200;-66
2022/03/11 02:49:55;;;;;;;19.52;12.25;;;;;;;;;;5013466;28;20226;-64
2022/03/11 02:52:23;;;;;;;18.63;14.13;;;;;;;;;;5013885;28;20634;-65
2022/03/11 02:54:50;;;;;;;20.48;13.30;;;;;;;;;;5013799;28;20197;-65
2022/03/11 02:57:17;;;;;;;20.02;13.50;;;;;;;;;;5013665;28;20200;-65
2022/03/11 02:59:46;;;;;;;22.27;13.40;;;;;;;;;;5014298;28;20303;-65
2022/03/11 03:02:13;;;;;;;17.50;13.57;;;;;;;;;;5013731;28;20733;-65
2022/03/11 03:04:40;;;;;;;19.50;14.02;;;;;;;;;;5013737;28;20193;-64
2022/03/11 03:07:08;;;;;;;15.68;13.18;;;;;;;;;;5013681;28;20200;-65
2022/03/11 03:09:41;;;;;;;24.20;12.77;;;;;;;;;;5013612;28;20261;-65
2022/03/11 03:12:09;;;;;;;21.40;13.65;;;;;;;;;;5013487;28;20189;-65
2022/03/11 03:14:36;;;;;;;20.02;12.88;;;;;;;;;;5013618;28;20197;-65
2022/03/11 03:17:05;;;;;;;16.58;12.88;;;;;;;;;;5013504;28;20208;-66
2022/03/11 03:19:32;;;;;;;21.73;13.73;;;;;;;;;;5013351;28;20237;-65
2022/03/11 03:21:59;;;;;;;17.92;12.73;;;;;;;;;;5013499;28;20192;-65
2022/03/11 03:24:26;;;;;;;19.63;14.35;;;;;;;;;;5013578;28;20204;-65
2022/03/11 03:26:55;;;;;;;18.05;13.75;;;;;;;;;;5013464;28;20603;-65
2022/03/11 03:29:23;;;;;;;24.20;14.45;;;;;;;;;;5013473;28;20583;-64
2022/03/11 03:31:52;;;;;;;23.45;15.30;;;;;;;;;;5013631;28;20550;-65
2022/03/11 03:34:21;;;;;;;19.13;13.20;;;;;;;;;;5013172;28;20197;-65
2022/03/11 03:36:48;;;;;;;17.83;12.90;;;;;;;;;;5013054;28;20198;-65
2022/03/11 03:39:15;;;;;;;21.25;12.43;;;;;;;;;;5013508;28;20730;-65
2022/03/11 03:41:42;;;;;;;22.63;14.35;;;;;;;;;;5014098;28;20283;-65
2022/03/11 03:44:10;;;;;;;19.90;13.60;;;;;;;;;;5013039;28;20193;-65
2022/03/11 03:46:37;;;;;;;22.80;14.15;;;;;;;;;;5013052;28;20203;-65
2022/03/11 03:49:04;;;;;;;23.80;14.88;;;;;;;;;;5013210;28;20201;-65
2022/03/11 03:51:33;;;;;;;18.08;13.00;;;;;;;;;;5013220;28;20216;-65
2022/03/11 03:54:00;;;;;;;21.90;13.93;;;;;;;;;;5012860;28;20198;-65
2022/03/11 03:56:27;;;;;;;19.33;12.45;;;;;;;;;;5012999;28;20558;-65
2022/03/11 03:58:54;;;;;;;22.67;13.95;;;;;;;;;;5014601;28;20283;-65
2022/03/11 04:01:21;;;;;;;18.65;14.00;;;;;;;;;;5016852;28;20574;-66
2022/03/11 04:03:48;;;;;;;22.60;15.07;;;;;;;;;;5016725;28;20197;-65
2022/03/11 04:06:15;;;;;;;24.27;15.20;;;;;;;;;;5016724;28;20216;-65
2022/03/11 04:08:44;;;;;;;21.70;14.73;;;;;;;;;;5016296;28;20196;-65
2022/03/11 04:11:11;;;;;;;17.92;12.52;;;;;;;;;;5016589;28;20311;-65
2022/03/11 04:13:38;;;;;;;24.42;14.68;;;;;;;;;;5016230;28;20202;-65
2022/03/11 04:16:06;;;;;;;22.85;14.55;;;;;;;;;;5016252;28;20202;-65
2022/03/11 04:18:33;;;;;;;22.45;13.80;;;;;;;;;;5016394;28;20570;-65
2022/03/11 04:21:02;;;;;;;20.05;14.30;;;;;;;;;;5016150;28;20228;-65
2022/03/11 04:23:29;;;;;;;21.98;14.35;;;;;;;;;;5016001;28;20207;-65
2022/03/11 04:25:57;;;;;;;20.40;15.05;;;;;;;;;;5016320;28;20199;-65
2022/03/11 04:28:24;;;;;;;21.08;14.68;;;;;;;;;;5016490;28;20204;-65
2022/03/11 04:30:52;;;;;;;21.00;14.57;;;;;;;;;;5016315;28;20226;-65
2022/03/11 04:33:19;;;;;;;27.27;16.08;;;;;;;;;;5016128;28;20292;-65
2022/03/11 04:35:46;;;;;;;17.55;13.60;;;;;;;;;;5015911;28;20758;-65
2022/03/11 04:38:13;;;;;;;24.60;15.35;;;;;;;;;;5016129;28;20228;-64
2022/03/11 04:40:40;;;;;;;22.60;15.20;;;;;;;;;;5016108;28;20236;-65
2022/03/11 04:43:09;;;;;;;22.15;15.10;;;;;;;;;;5016181;28;20650;-65
2022/03/11 04:45:36;;;;;;;21.48;14.77;;;;;;;;;;5016813;28;20303;-65
2022/03/11 04:48:05;;;;;;;26.65;16.00;;;;;;;;;;5016033;28;20490;-65
2022/03/11 04:50:32;;;;;;;19.42;14.70;;;;;;;;;;5015584;28;20216;-65
2022/03/11 04:52:59;;;;;;;24.48;16.60;;;;;;;;;;5015819;28;20200;-64
2022/03/11 04:55:26;;;;;;;22.35;15.05;;;;;;;;;;5015907;28;20200;-64
2022/03/11 04:57:53;;;;;;;20.25;14.00;;;;;;;;;;5015407;28;20196;-65
2022/03/11 05:00:22;;;;;;;24.13;16.33;;;;;;;;;;5015447;28;20225;-65
2022/03/11 05:02:49;;;;;;;27.63;17.35;;;;;;;;;;5015711;28;20190;-65
2022/03/11 05:05:17;;;;;;;25.73;16.45;;;;;;;;;;5015679;28;20209;-65
2022/03/11 05:07:44;;;;;;;24.70;15.82;;;;;;;;;;5015609;28;20206;-65
2022/03/11 05:10:11;;;;;;;24.75;16.23;;;;;;;;;;5014436;28;20232;-66
2022/03/11 05:12:39;;;;;;;26.25;15.35;;;;;;;;;;5015961;28;20203;-71
2022/03/11 05:15:07;;;;;;;23.30;17.10;;;;;;;;;;5015116;28;20192;-71
2022/03/11 05:17:36;;;;;;;23.95;15.15;;;;;;;;;;5015490;28;20201;-71
2022/03/11 05:20:03;;;;;;;20.17;14.05;;;;;;;;;;5015346;28;20604;-71
2022/03/11 05:22:31;;;;;;;22.50;14.55;;;;;;;;;;5014056;28;20551;-70
2022/03/11 05:24:58;;;;;;;22.08;15.93;;;;;;;;;;5014922;28;20287;-70
2022/03/11 05:27:25;;;;;;;25.67;14.52;;;;;;;;;;5014549;28;20223;-69
2022/03/11 05:29:52;;;;;;;29.08;15.40;;;;;;;;;;5014764;28;20288;-70
2022/03/11 05:32:20;;;;;;;25.30;17.67;;;;;;;;;;5014852;28;20197;-70
2022/03/11 05:34:49;;;;;;;23.70;16.38;;;;;;;;;;5014713;28;20539;-70
2022/03/11 05:37:16;;;;;;;21.40;15.93;;;;;;;;;;5014614;28;20234;-71
2022/03/11 05:39:43;;;;;;;23.75;15.50;;;;;;;;;;5015057;28;20208;-71
2022/03/11 05:42:11;;;;;;;28.75;17.20;;;;;;;;;;5014483;28;20193;-71
2022/03/11 05:44:38;;;;;;;23.83;14.90;;;;;;;;;;5014480;28;20287;-70
2022/03/11 05:47:05;;;;;;;25.17;16.33;;;;;;;;;;5014796;28;20218;-70
2022/03/11 05:49:32;;;;;;;26.67;18.02;;;;;;;;;;5015034;28;20197;-71
2022/03/11 05:52:01;;;;;;;25.15;15.55;;;;;;;;;;5014183;28;20307;-71
2022/03/11 05:54:28;;;;;;;24.80;15.65;;;;;;;;;;5014294;28;20192;-70
2022/03/11 05:56:55;;;;;;;26.20;17.05;;;;;;;;;;5015149;28;20203;-70
2022/03/11 05:59:22;;;;;;;20.83;15.20;;;;;;;;;;5014452;28;20284;-70
2022/03/11 06:01:50;;;;;;;26.88;15.20;;;;;;;;;;5014195;28;20228;-70
2022/03/11 06:04:17;;;;;;;30.98;16.05;;;;;;;;;;5014673;28;20196;-70
2022/03/11 06:06:44;;;;;;;25.23;16.75;;;;;;;;;;5014550;28;20196;-71
2022/03/11 06:09:12;;;;;;;23.83;15.15;;;;;;;;;;5014772;28;20283;-70
2022/03/11 06:11:40;;;;;;;27.15;17.35;;;;;;;;;;5014354;28;20228;-70
2022/03/11 06:14:07;;;;;;;24.20;16.33;;;;;;;;;;5013523;28;20566;-70
2022/03/11 06:16:34;;;;;;;26.85;16.58;;;;;;;;;;5014430;28;20200;-71
2022/03/11 06:19:02;;;;;;;24.58;14.50;;;;;;;;;;5014029;28;20201;-70
2022/03/11 06:21:30;;;;;;;24.55;16.27;;;;;;;;;;5013750;28;20251;-71
2022/03/11 06:23:57;;;;;;;28.02;17.70;;;;;;;;;;5013995;28;20219;-67
2022/03/11 06:26:26;;;;;;;25.20;16.27;;;;;;;;;;5014103;28;20196;-68
2022/03/11 06:28:53;;;;;;;24.10;15.20;;;;;;;;;;5013769;28;20203;-68
2022/03/11 06:31:20;;;;;;;22.77;15.27;;;;;;;;;;5013975;28;20251;-67
2022/03/11 06:33:47;;;;;;;25.35;16.48;;;;;;;;;;5013613;28;20199;-68
2022/03/11 06:36:15;;;;;;;29.42;16.73;;;;;;;;;;5013792;28;20208;-68
2022/03/11 06:38:42;;;;;;;29.13;17.63;;;;;;;;;;5013945;28;20206;-68
2022/03/11 06:41:09;;;;;;;29.67;17.13;;;;;;;;;;5013770;28;20200;-68
2022/03/11 06:43:38;;;;;;;23.73;15.20;;;;;;;;;;5013772;28;20548;-67
2022/03/11 06:46:05;;;;;;;25.88;16.08;;;;;;;;;;5013677;28;20287;-67
2022/03/11 06:48:32;;;;;;;24.40;16.60;;;;;;;;;;5013792;28;20197;-68
2022/03/11 06:51:04;;;;;;;23.92;16.77;;;;;;;;;;5013609;28;20307;-68
2022/03/11 06:53:42;;;;;;;25.30;16.10;;;;;;;;;;5013514;28;20221;-68
2022/03/11 06:56:09;;;;;;;27.15;17.35;;;;;;;;;;5013677;28;20193;-68
2022/03/11 06:58:42;;;;;;;22.48;17.20;;;;;;;;;;5013954;28;20204;-68
2022/03/11 07:01:09;;;;;;;31.10;16.50;;;;;;;;;;5013366;28;20241;-68
2022/03/11 07:03:36;;;;;;;26.88;16.73;;;;;;;;;;5013307;28;20196;-68
2022/03/11 07:06:03;;;;;;;27.10;16.95;;;;;;;;;;5013235;28;20197;-68
2022/03/11 07:08:32;;;;;;;28.80;16.30;;;;;;;;;;5014010;28;20234;-67
2022/03/11 07:10:59;;;;;;;26.60;19.20;;;;;;;;;;5013546;28;20214;-69
2022/03/11 07:13:27;;;;;;;22.55;15.55;;;;;;;;;;5013792;28;20192;-69
2022/03/11 07:15:57;;;;;;;23.70;17.38;;;;;;;;;;5013335;28;20201;-68
2022/03/11 07:18:24;;;;;;;25.75;16.30;;;;;;;;;;5013775;28;20202;-68
2022/03/11 07:20:51;;;;;;;22.45;16.27;;;;;;;;;;5013705;28;20214;-68
2022/03/11 07:23:18;;;;;;;27.27;17.85;;;;;;;;;;5013423;28;20198;-69
2022/03/11 07:25:46;;;;;;;28.77;16.55;;;;;;;;;;5013059;28;20198;-68
2022/03/11 07:28:13;;;;;;;38.67;18.92;;;;;;;;;;5013435;28;20196;-69
2022/03/11 07:30:40;;;;;;;27.17;17.27;;;;;;;;;;5013338;28;20200;-68
2022/03/11 07:33:11;;;;;;;25.08;16.55;;;;;;;;;;5014027;28;20197;-68
2022/03/11 07:35:38;;;;;;;27.80;17.35;;;;;;;;;;5017544;28;20196;-68
2022/03/11 07:38:05;;;;;;;26.70;18.30;;;;;;;;;;5017199;28;20204;-68
2022/03/11 07:40:32;;;;;;;33.20;18.50;;;;;;;;;;5017021;28;20210;-68
2022/03/11 07:42:59;;;;;;;28.05;19.55;;;;;;;;;;5016993;28;20204;-68
2022/03/11 07:45:27;;;;;;;27.90;18.02;;;;;;;;;;5016884;28;20196;-68
2022/03/11 07:47:54;;;;;;;29.40;18.60;;;;;;;;;;5017230;28;20225;-68
2022/03/11 07:50:23;;;;;;;28.20;18.17;;;;;;;;;;5016810;28;20200;-68
2022/03/11 07:52:50;;;;;;;23.35;16.70;;;;;;;;;;5016916;28;20576;-68
2022/03/11 07:55:17;;;;;;;26.45;15.93;;;;;;;;;;5016846;28;20560;-67
2022/03/11 07:57:45;;;;;;;30.92;17.40;;;;;;;;;;5016877;28;20208;-68
2022/03/11 08:00:13;;;;;;;26.98;17.65;;;;;;;;;;5016349;28;20260;-68
2022/03/11 08:02:41;;;;;;;27.40;17.48;;;;;;;;;;5016372;28;20726;-68
2022/03/11 08:05:14;;;;;;;25.38;16.85;;;;;;;;;;5017182;28;20199;-68
2022/03/11 08:07:43;;;;;;;30.65;18.45;;;;;;;;;;5016313;28;20194;-69
2022/03/11 08:10:10;;;;;;;27.25;19.33;;;;;;;;;;5016590;28;20255;-68
2022/03/11 08:12:37;;;;;;;25.98;18.00;;;;;;;;;;5016373;28;20593;-68
2022/03/11 08:15:06;;;;;;;27.63;15.90;;;;;;;;;;5016789;28;20197;-68
2022/03/11 08:17:33;;;;;;;29.38;17.75;;;;;;;;;;5015991;28;20197;-69
2022/03/11 08:20:00;;;;;;;30.45;18.50;;;;;;;;;;5015873;28;20202;-68
2022/03/11 08:22:27;;;;;;;24.25;15.25;;;;;;;;;;5016191;28;20208;-68
2022/03/11 08:24:56;;;;;;;22.30;15.88;;;;;;;;;;5015937;28;20197;-69
2022/03/11 08:27:23;;;;;;;23.92;16.92;;;;;;;;;;5015775;28;20751;-68
2022/03/11 08:29:50;;;;;;;24.33;16.52;;;;;;;;;;5015798;28;20201;-68
2022/03/11 08:32:17;;;;;;;28.38;16.67;;;;;;;;;;5015905;28;20222;-68
2022/03/11 08:34:45;;;;;;;25.67;17.15;;;;;;;;;;5015678;28;20193;-68
2022/03/11 08:37:12;;;;;;;25.98;18.88;;;;;;;;;;5015648;28;20194;-68
2022/03/11 08:39:39;;;;;;;27.40;16.48;;;;;;;;;;5015953;28;20197;-68
2022/03/11 08:42:08;;;;;;;24.42;17.35;;;;;;;;;;5015477;28;20300;-68
2022/03/11 08:44:35;;;;;;;25.48;16.45;;;;;;;;;;5015497;28;20208;-68
2022/03/11 08:47:03;;;;;;;23.20;15.80;;;;;;;;;;5015781;28;20199;-68
2022/03/11 08:49:30;;;;;;;25.02;16.40;;;;;;;;;;5015538;28;20674;-69
2022/03/11 08:51:57;;;;;;;25.65;16.23;;;;;;;;;;5015634;28;20233;-68
2022/03/11 08:54:25;;;;;;;26.63;16.50;;;;;;;;;;5015688;28;20287;-68
2022/03/11 08:56:54;;;;;;;24.15;16.75;;;;;;;;;;5015622;28;20198;-68
2022/03/11 08:59:23;;;;;;;23.73;16.17;;;;;;;;;;5016434;28;20601;-68
2022/03/11 09:01:50;;;;;;;27.08;17.60;;;;;;;;;;5015079;28;20240;-68
2022/03/11 09:04:17;;;;;;;21.45;14.50;;;;;;;;;;5015507;28;20199;-68
2022/03/11 09:06:44;;;;;;;21.38;15.20;;;;;;;;;;5015808;28;20550;-68
2022/03/11 09:09:12;;;;;;;23.80;15.88;;;;;;;;;;5015214;28;20194;-68
2022/03/11 09:11:39;;;;;;;27.85;16.75;;;;;;;;;;5015837;28;20225;-67
2022/03/11 09:14:07;;;;;;;21.40;14.95;;;;;;;;;;5015338;28;20200;-68
2022/03/11 09:16:35;;;;;;;24.40;15.65;;;;;;;;;;5014615;28;20260;-68
2022/03/11 09:19:03;;;;;;;27.27;16.35;;;;;;;;;;5015801;28;20195;-68
2022/03/11 09:21:30;;;;;;;21.05;15.00;;;;;;;;;;5015127;28;20216;-67
2022/03/11 09:23:57;;;;;;;23.98;14.80;;;;;;;;;;5014675;28;20198;-68
2022/03/11 09:26:24;;;;;;;26.77;14.65;;;;;;;;;;5014655;28;20647;-67
2022/03/11 09:28:51;;;;;;;20.90;14.20;;;;;;;;;;5015113;28;20670;-68
2022/03/11 09:31:19;;;;;;;27.20;15.15;;;;;;;;;;5015758;28;20202;-68
2022/03/11 09:33:47;;;;;;;21.67;15.50;;;;;;;;;;5014926;28;20202;-68
2022/03/11 09:36:14;;;;;;;23.70;13.75;;;;;;;;;;5014621;28;20201;-68
2022/03/11 09:38:42;;;;;;;24.45;14.20;;;;;;;;;;5014947;28;20199;-68
2022/03/11 09:41:10;;;;;;;20.25;15.07;;;;;;;;;;5015174;28;20708;-67
2022/03/11 09:43:38;;;;;;;28.00;14.88;;;;;;;;;;5014833;28;20210;-68
2022/03/11 09:46:05;;;;;;;18.95;14.25;;;;;;;;;;5015003;28;20661;-68
2022/03/11 09:48:34;;;;;;;19.83;14.48;;;;;;;;;;5014276;28;20205;-68
2022/03/11 09:51:02;;;;;;;19.48;15.23;;;;;;;;;;5015118;28;20286;-68
2022/03/11 09:53:30;;;;;;;24.30;15.00;;;;;;;;;;5014162;28;20222;-68
2022/03/11 09:55:57;;;;;;;25.05;14.88;;;;;;;;;;5013790;28;20680;-68
2022/03/11 09:58:28;;;;;;;15.73;12.95;;;;;;;;;;5014637;28;20289;-68
2022/03/11 10:00:58;;;;;;;21.27;15.27;;;;;;;;;;5014334;28;20228;-68
2022/03/11 10:03:27;;;;;;;20.35;13.70;;;;;;;;;;5014531;28;20211;-68
2022/03/11 10:05:55;;;;;;;19.50;14.40;;;;;;;;;;5014120;28;20279;-68
2022/03/11 10:08:32;;;;;;;21.15;14.55;;;;;;;;;;5014022;28;20669;-68
2022/03/11 10:11:17;;;;;;;17.70;12.27;;;;;;;;;;5014208;28;20640;-68
2022/03/11 10:13:44;;;;;;;21.73;14.38;;;;;;;;;;5014357;28;20269;-69
2022/03/11 10:16:18;;;;;;;22.05;13.30;;;;;;;;;;5014072;28;20221;-68
2022/03/11 10:18:54;;;;;;;22.60;13.60;;;;;;;;;;5013670;28;20199;-68
2022/03/11 10:21:26;;;;;;;23.52;12.80;;;;;;;;;;5013892;28;20188;-68
2022/03/11 10:23:55;;;;;;;24.45;13.82;;;;;;;;;;5014129;28;20193;-68
2022/03/11 10:26:32;;;;;;;18.67;14.05;;;;;;;;;;5014078;28;20234;-68
2022/03/11 10:29:00;;;;;;;18.80;13.27;;;;;;;;;;5013641;28;20199;-68
2022/03/11 10:31:31;;;;;;;23.52;12.63;;;;;;;;;;5014370;28;20230;-68
2022/03/11 10:34:14;;;;;;;16.83;12.57;;;;;;;;;;5013653;28;20348;-68
2022/03/11 10:36:47;;;;;;;17.25;12.27;;;;;;;;;;5013481;28;20209;-67
2022/03/11 10:39:16;;;;;;;21.02;12.70;;;;;;;;;;5013821;28;20195;-67
2022/03/11 10:41:43;;;;;;;17.35;12.95;;;;;;;;;;5014125;28;20204;-68
2022/03/11 10:44:12;;;;;;;15.57;11.80;;;;;;;;;;5013726;28;20202;-66
2022/03/11 10:46:40;;;;;;;22.42;12.55;;;;;;;;;;5014074;28;20283;-67
2022/03/11 10:49:07;;;;;;;18.00;13.95;;;;;;;;;;5013298;28;20199;-67
2022/03/11 10:51:35;;;;;;;15.57;12.77;;;;;;;;;;5013467;28;20200;-67
2022/03/11 10:54:05;;;;;;;15.80;11.98;;;;;;;;;;5013215;28;20202;-67
2022/03/11 10:56:36;;;;;;;21.50;12.70;;;;;;;;;;5013800;28;20192;-67
2022/03/11 10:59:07;;;;;;;15.75;12.88;;;;;;;;;;5013503;28;20199;-67
2022/03/11 11:01:38;;;;;;;20.20;14.30;;;;;;;;;;5013056;28;20689;-67
2022/03/11 11:04:07;;;;;;;26.88;16.73;;;;;;;;;;5013642;28;20446;-67
2022/03/11 11:06:34;;;;;;;16.40;13.07;;;;;;;;;;5013578;28;20206;-67
2022/03/11 11:09:02;;;;;;;17.88;12.88;;;;;;;;;;5015399;28;20209;-67
2022/03/11 11:11:30;;;;;;;16.38;12.52;;;;;;;;;;5017394;28;20649;-68
2022/03/11 11:14:00;;;;;;;18.65;12.90;;;;;;;;;;5017496;28;20222;-68
2022/03/11 11:16:28;;;;;;;17.45;12.65;;;;;;;;;;5017367;28;20219;-68
2022/03/11 11:18:58;;;;;;;14.00;11.18;;;;;;;;;;5017002;28;20646;-67
2022/03/11 11:21:25;;;;;;;16.02;12.80;;;;;;;;;;5017484;28;20200;-67
2022/03/11 11:23:54;;;;;;;15.68;12.38;;;;;;;;;;5017323;28;20202;-69
2022/03/11 11:26:22;;;;;;;17.15;10.95;;;;;;;;;;5017315;28;20192;-68
2022/03/11 11:28:49;;;;;;;17.20;13.18;;;;;;;;;;5016851;28;20291;-68
2022/03/11 11:31:18;;;;;;;18.30;12.63;;;;;;;;;;5017072;28;20226;-67
2022/03/11 11:33:46;;;;;;;14.82;12.77;;;;;;;;;;5016957;28;20219;-67
2022/03/11 11:36:13;;;;;;;19.80;12.82;;;;;;;;;;5017038;28;20205;-67
2022/03/11 11:38:42;;;;;;;15.38;12.20;;;;;;;;;;5016689;28;20196;-67
2022/03/11 11:41:25;;;;;;;22.30;11.43;;;;;;;;;;5016584;28;20192;-67
2022/03/11 11:43:54;;;;;;;14.02;11.68;;;;;;;;;;5017157;28;20282;-67
2022/03/11 11:46:23;;;;;;;16.15;12.75;;;;;;;;;;5016903;28;20197;-68
2022/03/11 11:49:16;;;;;;;15.97;10.63;;;;;;;;;;5016858;28;20583;-67
2022/03/11 11:51:59;;;;;;;20.67;12.32;;;;;;;;;;5017483;28;20454;-68
2022/03/11 11:54:37;;;;;;;16.60;11.95;;;;;;;;;;5017010;28;20199;-67
2022/03/11 11:57:05;;;;;;;17.25;11.68;;;;;;;;;;5016882;28;20608;-68
2022/03/11 11:59:35;;;;;;;19.88;12.70;;;;;;;;;;5016796;28;20225;-68
2022/03/11 12:02:05;;;;;;;17.58;11.95;;;;;;;;;;5017086;28;20224;-68
2022/03/11 12:04:34;;;;;;;16.05;11.48;;;;;;;;;;5016433;28;20605;-69
2022/03/11 12:07:02;;;;;;;14.85;11.15;;;;;;;;;;5016745;28;20649;-68
2022/03/11 12:09:47;;;;;;;15.87;11.97;;;;;;;;;;5016540;28;20194;-68
2022/03/11 12:12:33;;;;;;;16.90;10.30;;;;;;;;;;5016136;28;20504;-67
2022/03/11 12:15:16;;;;;;;19.13;11.20;;;;;;;;;;5015701;28;20801;-66
2022/03/11 12:17:45;;;;;;;14.63;10.50;;;;;;;;;;5016341;28;20275;-68
2022/03/11 12:20:32;;;;;;;13.65;10.60;;;;;;;;;;5015409;28;20541;-68
2022/03/11 12:23:01;;;;;;;18.45;11.77;;;;;;;;;;5016356;28;20208;-67
2022/03/11 12:25:29;;;;;;;14.90;11.98;;;;;;;;;;5016225;28;20291;-67
2022/03/11 12:28:03;;;;;;;14.57;10.75;;;;;;;;;;5015912;28;20205;-67
2022/03/11 12:30:31;;;;;;;13.70;11.27;;;;;;;;;;5016145;28;20209;-68
2022/03/11 12:33:02;;;;;;;15.07;11.33;;;;;;;;;;5016096;28;20894;-68
2022/03/11 12:35:29;;;;;;;12.98;10.50;;;;;;;;;;5015864;28;20427;-68
2022/03/11 12:37:56;;;;;;;13.90;9.77;;;;;;;;;;5015555;28;20665;-68
2022/03/11 12:40:24;;;;;;;17.53;11.80;;;;;;;;;;5015517;28;20448;-71
2022/03/11 12:42:57;;;;;;;16.60;10.90;;;;;;;;;;5016491;28;20451;-67
2022/03/11 12:45:36;;;;;;;14.93;11.00;;;;;;;;;;5016017;28;20441;-66
2022/03/11 12:48:05;;;;;;;14.03;11.77;;;;;;;;;;5015517;28;20443;-67
2022/03/11 12:50:32;;;;;;;16.42;10.85;;;;;;;;;;5015218;28;20451;-67
2022/03/11 12:53:00;;;;;;;20.13;11.00;;;;;;;;;;5015946;28;20242;-67
2022/03/11 12:55:30;;;;;;;17.87;11.50;;;;;;;;;;5015811;28;20447;-64
2022/03/11 12:57:57;;;;;;;14.97;11.87;;;;;;;;;;5015568;28;20481;-63
2022/03/11 13:00:25;;;;;;;14.30;11.53;;;;;;;;;;5015140;28;20481;-65
2022/03/11 13:02:53;;;;;;;17.57;11.33;;;;;;;;;;5015246;28;20499;-65
2022/03/11 13:05:25;;;;;;;11.43;10.23;;;;;;;;;;5015304;28;20475;-66
2022/03/11 13:07:53;;;;;;;17.67;11.93;;;;;;;;;;5013234;28;20448;-65
2022/03/11 13:10:22;;;;;;;13.30;10.87;;;;;;;;;;5014773;28;20446;-65
2022/03/11 13:12:50;;;;;;;18.17;10.90;;;;;;;;;;5015024;28;20610;-65
2022/03/11 13:15:21;;;;;;;16.53;9.73;;;;;;;;;;5014640;28;20646;-65
2022/03/11 13:17:50;;;;;;;12.83;10.53;;;;;;;;;;5014661;28;20490;-65
2022/03/11 13:20:31;;;;;;;13.17;10.30;;;;;;;;;;5014907;28;20482;-65
2022/03/11 13:22:59;;;;;;;13.20;10.53;;;;;;;;;;5014641;28;20454;-66
2022/03/11 13:25:26;;;;;;;16.57;10.40;;;;;;;;;;5015250;28;20447;-66
2022/03/11 13:27:53;;;;;;;19.60;11.40;;;;;;;;;;5014547;28;20978;-66
2022/03/11 13:30:34;;;;;;;11.43;9.83;;;;;;;;;;5014754;28;20447;-66
2022/03/11 13:33:11;;;;;;;14.10;10.77;;;;;;;;;;5014390;28;20561;-66
2022/03/11 13:35:40;;;;;;;14.30;11.60;;;;;;;;;;5014718;28;20479;-66
2022/03/11 13:38:07;;;;;;;22.60;10.27;;;;;;;;;;5014700;28;20447;-65
2022/03/11 13:40:34;;;;;;;16.10;10.40;;;;;;;;;;5014537;28;20866;-66
2022/03/11 13:43:03;;;;;;;12.00;10.37;;;;;;;;;;5014483;28;20513;-66
2022/03/11 13:45:31;;;;;;;13.18;10.00;;;;;;;;;;5014535;28;20482;-66
2022/03/11 13:48:08;;;;;;;16.40;11.20;;;;;;;;;;5015459;28;20228;-65
2022/03/11 13:50:35;;;;;;;13.23;9.43;;;;;;;;;;5014242;28;20435;-66
2022/03/11 13:53:04;;;;;;;12.80;8.90;;;;;;;;;;5014527;28;20483;-65
2022/03/11 13:55:35;;;;;;;12.50;10.03;;;;;;;;;;5014209;28;20444;-66
2022/03/11 13:58:19;;;;;;;16.30;10.43;;;;;;;;;;5014599;28;20443;-65
2022/03/11 14:00:47;;;;;;;14.13;10.83;;;;;;;;;;5014199;28;20485;-65
2022/03/11 14:03:18;;;;;;;13.53;10.30;;;;;;;;;;5014044;28;20530;-66
2022/03/11 14:05:46;;;;;;;11.30;9.40;;;;;;;;;;5014518;28;20442;-65
2022/03/11 14:08:14;;;;;;;15.13;10.80;;;;;;;;;;5014055;28;20444;-67
2022/03/11 14:10:45;;;;;;;15.87;9.87;;;;;;;;;;5014256;28;20778;-65
2022/03/11 14:13:13;;;;;;;13.03;8.70;;;;;;;;;;5013877;28;20475;-65
2022/03/11 14:15:42;;;;;;;14.80;10.00;;;;;;;;;;5014187;28;20447;-65
2022/03/11 14:18:11;;;;;;;13.07;9.40;;;;;;;;;;5014355;28;20451;-66
2022/03/11 14:20:38;;;;;;;14.23;10.03;;;;;;;;;;5013764;28;20638;-66
2022/03/11 14:23:06;;;;;;;12.03;9.77;;;;;;;;;;5013796;28;20534;-65
2022/03/11 14:25:37;;;;;;;10.60;9.50;;;;;;;;;;5013497;28;20443;-69
2022/03/11 14:28:05;;;;;;;11.40;9.20;;;;;;;;;;5014428;28;20791;-67
2022/03/11 14:30:33;;;;;;;12.67;9.90;;;;;;;;;;5013774;28;20808;-66